sensor_id;sensor_type;location;lat;lon;timestamp;pressure;altitude;pressure_sealevel;temperature;humidity
56604;BME280;42486;47.478;19.036;2024-03-29T00:01:03;76702.28;;;-145.76;96.93
56604;BME280;42486;47.478;19.036;2024-03-29T00:04:05;76716.22;;;-145.76;97.31
56604;BME280;42486;47.478;19.036;2024-03-29T00:07:07;76714.22;;;-145.76;98.32
56604;BME280;42486;47.478;19.036;2024-03-29T00:10:11;76730.16;;;-145.76;97.95
56604;BME280;42486;47.478;19.036;2024-03-29T00:13:13;76736.13;;;-145.76;97.44
56604;BME280;42486;47.478;19.036;2024-03-29T00:16:15;76750.06;;;-145.76;97.61
56604;BME280;42486;47.478;19.036;2024-03-29T00:19:19;76744.09;;;-145.76;97.92
56604;BME280;42486;47.478;19.036;2024-03-29T00:22:21;76758.03;;;-145.76;96.26
56604;BME280;42486;47.478;19.036;2024-03-29T00:25:24;76752.06;;;-145.76;94.63
56604;BME280;42486;47.478;19.036;2024-03-29T00:28:27;76756.03;;;-145.76;93.43
56604;BME280;42486;47.478;19.036;2024-03-29T00:31:30;76760.03;;;-145.76;93.03
56604;BME280;42486;47.478;19.036;2024-03-29T00:34:33;76764.00;;;-145.76;93.45
56604;BME280;42486;47.478;19.036;2024-03-29T00:37:36;76758.03;;;-145.76;92.37
56604;BME280;42486;47.478;19.036;2024-03-29T00:40:39;76766.00;;;-145.76;91.10
56604;BME280;42486;47.478;19.036;2024-03-29T00:43:41;76762.00;;;-145.76;89.86
56604;BME280;42486;47.478;19.036;2024-03-29T00:46:43;76758.03;;;-145.76;90.82
56604;BME280;42486;47.478;19.036;2024-03-29T00:49:46;76771.97;;;-145.76;89.93
56604;BME280;42486;47.478;19.036;2024-03-29T00:52:52;76783.91;;;-145.76;87.62
56604;BME280;42486;47.478;19.036;2024-03-29T00:55:55;76783.91;;;-145.76;88.71
56604;BME280;42486;47.478;19.036;2024-03-29T00:59:02;76803.81;;;-145.76;89.43
56604;BME280;42486;47.478;19.036;2024-03-29T01:02:06;76801.81;;;-145.76;90.21
56604;BME280;42486;47.478;19.036;2024-03-29T01:05:11;76805.81;;;-145.76;91.31
56604;BME280;42486;47.478;19.036;2024-03-29T01:08:15;76803.81;;;-145.76;92.16
56604;BME280;42486;47.478;19.036;2024-03-29T01:11:20;76819.75;;;-145.76;92.79
56604;BME280;42486;47.478;19.036;2024-03-29T01:14:25;76817.75;;;-145.76;92.23
56604;BME280;42486;47.478;19.036;2024-03-29T01:17:29;76805.81;;;-145.76;94.16
56604;BME280;42486;47.478;19.036;2024-03-29T01:20:32;76827.72;;;-145.76;94.28
56604;BME280;42486;47.478;19.036;2024-03-29T01:23:35;76865.53;;;-145.76;93.60
56604;BME280;42486;47.478;19.036;2024-03-29T01:26:37;76883.47;;;-145.76;93.55
56604;BME280;42486;47.478;19.036;2024-03-29T01:29:41;76903.38;;;-145.76;94.48
56604;BME280;42486;47.478;19.036;2024-03-29T01:32:45;76917.31;;;-145.76;94.58
56604;BME280;42486;47.478;19.036;2024-03-29T01:35:48;76927.25;;;-145.76;94.97
56604;BME280;42486;47.478;19.036;2024-03-29T01:38:50;76929.25;;;-145.76;95.48
56604;BME280;42486;47.478;19.036;2024-03-29T01:41:55;76933.22;;;-145.76;95.00
56604;BME280;42486;47.478;19.036;2024-03-29T01:44:58;76951.16;;;-145.76;95.38
56604;BME280;42486;47.478;19.036;2024-03-29T01:48:02;76953.16;;;-145.76;95.24
56604;BME280;42486;47.478;19.036;2024-03-29T01:51:06;76963.09;;;-145.76;95.77
56604;BME280;42486;47.478;19.036;2024-03-29T01:54:11;76981.03;;;-145.76;95.64
56604;BME280;42486;47.478;19.036;2024-03-29T01:57:19;76992.97;;;-145.76;95.72
56604;BME280;42486;47.478;19.036;2024-03-29T02:00:24;76994.97;;;-145.76;95.08
56604;BME280;42486;47.478;19.036;2024-03-29T02:03:29;77004.91;;;-145.76;95.16
56604;BME280;42486;47.478;19.036;2024-03-29T02:06:34;77002.91;;;-145.76;96.14
56604;BME280;42486;47.478;19.036;2024-03-29T02:09:38;77012.88;;;-145.76;96.24
56604;BME280;42486;47.478;19.036;2024-03-29T02:12:40;77024.81;;;-145.76;95.68
56604;BME280;42486;47.478;19.036;2024-03-29T02:15:42;77042.75;;;-145.76;95.98
56604;BME280;42486;47.478;19.036;2024-03-29T02:18:44;77054.69;;;-145.76;96.11
56604;BME280;42486;47.478;19.036;2024-03-29T02:21:48;77078.59;;;-145.76;96.27
56604;BME280;42486;47.478;19.036;2024-03-29T02:24:54;77084.56;;;-145.76;96.98
56604;BME280;42486;47.478;19.036;2024-03-29T02:27:59;77104.47;;;-145.76;97.42
56604;BME280;42486;47.478;19.036;2024-03-29T02:31:04;77090.53;;;-145.76;98.01
56604;BME280;42486;47.478;19.036;2024-03-29T02:34:07;77120.41;;;-145.76;98.27
56604;BME280;42486;47.478;19.036;2024-03-29T02:37:11;77136.31;;;-145.76;98.52
56604;BME280;42486;47.478;19.036;2024-03-29T02:40:14;77150.25;;;-145.76;98.57
56604;BME280;42486;47.478;19.036;2024-03-29T02:43:17;77160.22;;;-145.76;98.85
56604;BME280;42486;47.478;19.036;2024-03-29T02:46:20;77172.16;;;-145.76;99.54
56604;BME280;42486;47.478;19.036;2024-03-29T02:49:23;77178.13;;;-145.76;99.36
56604;BME280;42486;47.478;19.036;2024-03-29T02:52:26;77198.06;;;-145.76;99.67
56604;BME280;42486;47.478;19.036;2024-03-29T02:55:33;77198.06;;;-145.76;100.00
56604;BME280;42486;47.478;19.036;2024-03-29T02:58:36;77192.06;;;-145.76;99.77
56604;BME280;42486;47.478;19.036;2024-03-29T03:01:40;77182.13;;;-145.76;99.37
56604;BME280;42486;47.478;19.036;2024-03-29T03:04:42;77186.09;;;-145.76;98.41
56604;BME280;42486;47.478;19.036;2024-03-29T03:07:45;77168.19;;;-145.76;96.82
56604;BME280;42486;47.478;19.036;2024-03-29T03:11:08;77162.22;;;-145.76;95.53
56604;BME280;42486;47.478;19.036;2024-03-29T03:14:12;77148.28;;;-145.76;93.67
56604;BME280;42486;47.478;19.036;2024-03-29T03:17:16;77146.28;;;-145.76;94.59
56604;BME280;42486;47.478;19.036;2024-03-29T03:20:18;77158.22;;;-145.76;95.08
56604;BME280;42486;47.478;19.036;2024-03-29T03:23:24;77158.22;;;-145.76;96.84
56604;BME280;42486;47.478;19.036;2024-03-29T03:26:29;77166.19;;;-145.76;97.35
56604;BME280;42486;47.478;19.036;2024-03-29T03:29:31;77176.16;;;-145.76;97.07
56604;BME280;42486;47.478;19.036;2024-03-29T03:32:35;77194.06;;;-145.76;97.00
56604;BME280;42486;47.478;19.036;2024-03-29T03:35:41;77215.97;;;-145.76;96.82
56604;BME280;42486;47.478;19.036;2024-03-29T03:38:44;77229.91;;;-145.76;97.19
56604;BME280;42486;47.478;19.036;2024-03-29T03:41:47;77225.94;;;-145.76;97.14
56604;BME280;42486;47.478;19.036;2024-03-29T03:44:51;77212.00;;;-145.76;97.61
56604;BME280;42486;47.478;19.036;2024-03-29T03:47:54;77204.03;;;-145.76;98.57
56604;BME280;42486;47.478;19.036;2024-03-29T03:50:59;77210.00;;;-145.76;98.55
56604;BME280;42486;47.478;19.036;2024-03-29T03:54:03;77213.97;;;-145.76;98.22
56604;BME280;42486;47.478;19.036;2024-03-29T03:57:06;77217.97;;;-145.76;97.78
56604;BME280;42486;47.478;19.036;2024-03-29T04:00:09;77225.94;;;-145.76;97.95
56604;BME280;42486;47.478;19.036;2024-03-29T04:03:13;77235.88;;;-145.76;97.48
56604;BME280;42486;47.478;19.036;2024-03-29T04:06:16;77239.88;;;-145.76;97.78
56604;BME280;42486;47.478;19.036;2024-03-29T04:09:20;77271.72;;;-145.76;98.14
56604;BME280;42486;47.478;19.036;2024-03-29T04:12:24;77261.78;;;-145.76;97.96
56604;BME280;42486;47.478;19.036;2024-03-29T04:15:27;77291.63;;;-145.76;98.41
56604;BME280;42486;47.478;19.036;2024-03-29T04:18:32;77303.59;;;-145.76;98.20
56604;BME280;42486;47.478;19.036;2024-03-29T04:21:34;77299.59;;;-145.76;98.26
56604;BME280;42486;47.478;19.036;2024-03-29T04:24:37;77305.56;;;-145.76;98.77
56604;BME280;42486;47.478;19.036;2024-03-29T04:27:40;77309.56;;;-145.76;98.53
56604;BME280;42486;47.478;19.036;2024-03-29T04:30:54;77327.47;;;-145.76;98.78
56604;BME280;42486;47.478;19.036;2024-03-29T04:33:57;77339.44;;;-145.76;99.35
56604;BME280;42486;47.478;19.036;2024-03-29T04:37:01;77335.44;;;-145.76;99.44
56604;BME280;42486;47.478;19.036;2024-03-29T04:40:04;77345.41;;;-145.76;99.79
56604;BME280;42486;47.478;19.036;2024-03-29T04:43:08;77355.34;;;-145.76;100.00
56604;BME280;42486;47.478;19.036;2024-03-29T04:46:11;77345.41;;;-145.76;100.00
56604;BME280;42486;47.478;19.036;2024-03-29T04:49:14;77347.38;;;-145.76;100.00
56604;BME280;42486;47.478;19.036;2024-03-29T04:52:19;77361.31;;;-145.76;100.00
56604;BME280;42486;47.478;19.036;2024-03-29T04:55:25;77373.28;;;-145.76;100.00
56604;BME280;42486;47.478;19.036;2024-03-29T04:58:29;77379.25;;;-145.76;100.00
56604;BME280;42486;47.478;19.036;2024-03-29T05:01:32;77375.28;;;-145.76;100.00
56604;BME280;42486;47.478;19.036;2024-03-29T05:04:37;77357.34;;;-145.76;100.00
56604;BME280;42486;47.478;19.036;2024-03-29T05:07:39;77333.44;;;-145.76;100.00
56604;BME280;42486;47.478;19.036;2024-03-29T05:10:43;77317.53;;;-145.76;99.37
56604;BME280;42486;47.478;19.036;2024-03-29T05:13:45;77327.47;;;-145.76;99.34
56604;BME280;42486;47.478;19.036;2024-03-29T05:16:48;77325.50;;;-145.76;98.71
56604;BME280;42486;47.478;19.036;2024-03-29T05:19:51;77323.50;;;-145.76;98.43
56604;BME280;42486;47.478;19.036;2024-03-29T05:22:54;77315.53;;;-145.76;98.38
56604;BME280;42486;47.478;19.036;2024-03-29T05:25:56;77305.56;;;-145.76;97.22
56604;BME280;42486;47.478;19.036;2024-03-29T05:28:59;77289.66;;;-145.76;96.71
56604;BME280;42486;47.478;19.036;2024-03-29T05:32:04;77271.72;;;-145.76;96.63
56604;BME280;42486;47.478;19.036;2024-03-29T05:35:06;77251.81;;;-145.76;94.90
56604;BME280;42486;47.478;19.036;2024-03-29T05:38:10;77229.91;;;-145.76;93.92
56604;BME280;42486;47.478;19.036;2024-03-29T05:41:14;77213.97;;;-145.76;93.09
56604;BME280;42486;47.478;19.036;2024-03-29T05:44:16;77200.03;;;-145.76;93.01
56604;BME280;42486;47.478;19.036;2024-03-29T05:47:19;77158.22;;;-145.76;91.85
56604;BME280;42486;47.478;19.036;2024-03-29T05:50:24;77140.31;;;-145.76;90.42
56604;BME280;42486;47.478;19.036;2024-03-29T05:53:27;77102.47;;;-145.76;90.12
56604;BME280;42486;47.478;19.036;2024-03-29T05:56:29;77108.44;;;-145.76;88.39
56604;BME280;42486;47.478;19.036;2024-03-29T05:59:32;77070.63;;;-145.76;87.36
56604;BME280;42486;47.478;19.036;2024-03-29T06:02:35;77010.88;;;-145.76;85.13
56604;BME280;42486;47.478;19.036;2024-03-29T06:05:42;76917.31;;;-145.76;80.09
56604;BME280;42486;47.478;19.036;2024-03-29T06:08:48;76877.50;;;-145.76;79.01
56604;BME280;42486;47.478;19.036;2024-03-29T06:11:51;76682.38;;;-145.76;72.16
56604;BME280;42486;47.478;19.036;2024-03-29T06:14:55;76254.34;;;-145.76;56.91
56604;BME280;42486;47.478;19.036;2024-03-29T06:18:16;75995.56;;;-145.76;50.03
56604;BME280;42486;47.478;19.036;2024-03-29T06:21:20;76005.53;;;-145.76;47.96
56604;BME280;42486;47.478;19.036;2024-03-29T06:24:22;75919.94;;;-145.76;47.09
56604;BME280;42486;47.478;19.036;2024-03-29T06:27:25;75858.22;;;-145.76;45.45
56604;BME280;42486;47.478;19.036;2024-03-29T06:30:28;75981.63;;;-145.76;46.87
56604;BME280;42486;47.478;19.036;2024-03-29T06:33:33;76103.06;;;-145.76;48.42
56604;BME280;42486;47.478;19.036;2024-03-29T06:36:35;75993.59;;;-145.76;47.56
56604;BME280;42486;47.478;19.036;2024-03-29T06:39:39;75836.34;;;-145.76;43.95
56604;BME280;42486;47.478;19.036;2024-03-29T06:42:42;75623.34;;;-145.76;40.90
56604;BME280;42486;47.478;19.036;2024-03-29T06:45:44;75482.03;;;-145.76;38.53
56604;BME280;42486;47.478;19.036;2024-03-29T06:48:47;75332.78;;;-145.76;36.13
56604;BME280;42486;47.478;19.036;2024-03-29T06:51:51;75310.88;;;-145.76;34.66
56604;BME280;42486;47.478;19.036;2024-03-29T06:54:56;75314.84;;;-145.76;34.12
56604;BME280;42486;47.478;19.036;2024-03-29T06:57:59;75233.25;;;-145.76;34.05
56604;BME280;42486;47.478;19.036;2024-03-29T07:01:01;75235.25;;;-145.76;33.77
56604;BME280;42486;47.478;19.036;2024-03-29T07:04:03;75195.44;;;-145.76;33.19
56604;BME280;42486;47.478;19.036;2024-03-29T07:07:06;75165.59;;;-145.76;32.79
56604;BME280;42486;47.478;19.036;2024-03-29T07:10:09;75195.44;;;-145.76;33.31
56604;BME280;42486;47.478;19.036;2024-03-29T07:13:12;75396.47;;;-145.76;35.40
56604;BME280;42486;47.478;19.036;2024-03-29T07:16:15;75762.69;;;-145.76;40.31
56604;BME280;42486;47.478;19.036;2024-03-29T07:19:18;75675.09;;;-145.76;38.99
56604;BME280;42486;47.478;19.036;2024-03-29T07:22:21;75748.75;;;-145.76;40.55
56604;BME280;42486;47.478;19.036;2024-03-29T07:25:24;76001.53;;;-145.76;44.84
56604;BME280;42486;47.478;19.036;2024-03-29T07:28:28;75985.63;;;-145.76;47.55
56604;BME280;42486;47.478;19.036;2024-03-29T07:31:31;75894.06;;;-145.76;43.06
56604;BME280;42486;47.478;19.036;2024-03-29T07:34:34;75906.00;;;-145.76;43.36
56604;BME280;42486;47.478;19.036;2024-03-29T07:37:43;75629.31;;;-145.76;38.69
56604;BME280;42486;47.478;19.036;2024-03-29T07:40:50;75495.97;;;-145.76;37.20
56604;BME280;42486;47.478;19.036;2024-03-29T07:43:56;75766.66;;;-145.76;39.98
56604;BME280;42486;47.478;19.036;2024-03-29T07:47:02;76103.06;;;-145.76;46.92
56604;BME280;42486;47.478;19.036;2024-03-29T07:50:05;76286.22;;;-145.76;50.22
56604;BME280;42486;47.478;19.036;2024-03-29T07:53:09;76333.97;;;-145.76;56.78
56604;BME280;42486;47.478;19.036;2024-03-29T07:56:11;76375.78;;;-145.76;57.91
56604;BME280;42486;47.478;19.036;2024-03-29T07:59:13;76397.69;;;-145.76;57.45
56604;BME280;42486;47.478;19.036;2024-03-29T08:02:16;76427.53;;;-145.76;57.50
56604;BME280;42486;47.478;19.036;2024-03-29T08:05:21;76407.63;;;-145.76;60.17
56604;BME280;42486;47.478;19.036;2024-03-29T08:08:23;76393.69;;;-145.76;56.48
56604;BME280;42486;47.478;19.036;2024-03-29T08:11:27;76413.59;;;-145.76;57.55
56604;BME280;42486;47.478;19.036;2024-03-29T08:14:30;76413.59;;;-145.76;58.82
56604;BME280;42486;47.478;19.036;2024-03-29T08:17:32;76377.78;;;-145.76;57.31
56604;BME280;42486;47.478;19.036;2024-03-29T08:20:35;76411.63;;;-145.76;56.33
56604;BME280;42486;47.478;19.036;2024-03-29T08:23:39;76399.69;;;-145.76;57.89
56604;BME280;42486;47.478;19.036;2024-03-29T08:26:42;76393.69;;;-145.76;54.34
56604;BME280;42486;47.478;19.036;2024-03-29T08:29:45;76365.84;;;-145.76;56.62
56604;BME280;42486;47.478;19.036;2024-03-29T08:32:48;76355.88;;;-145.76;56.94
56604;BME280;42486;47.478;19.036;2024-03-29T08:35:50;76383.75;;;-145.76;53.17
56604;BME280;42486;47.478;19.036;2024-03-29T08:38:52;76401.66;;;-145.76;54.25
56604;BME280;42486;47.478;19.036;2024-03-29T08:41:57;76367.81;;;-145.76;55.60
56604;BME280;42486;47.478;19.036;2024-03-29T08:44:59;76345.94;;;-145.76;53.89
56604;BME280;42486;47.478;19.036;2024-03-29T08:48:04;76347.91;;;-145.76;53.73
56604;BME280;42486;47.478;19.036;2024-03-29T08:51:07;76335.97;;;-145.76;53.26
56604;BME280;42486;47.478;19.036;2024-03-29T08:54:11;76306.13;;;-145.76;53.09
56604;BME280;42486;47.478;19.036;2024-03-29T08:57:13;76292.19;;;-145.76;51.48
56604;BME280;42486;47.478;19.036;2024-03-29T09:00:16;76288.19;;;-145.76;49.84
56604;BME280;42486;47.478;19.036;2024-03-29T09:03:18;76248.38;;;-145.76;51.85
56604;BME280;42486;47.478;19.036;2024-03-29T09:06:23;76240.41;;;-145.76;50.57
56604;BME280;42486;47.478;19.036;2024-03-29T09:09:25;76238.44;;;-145.76;49.54
56604;BME280;42486;47.478;19.036;2024-03-29T09:12:27;76218.53;;;-145.76;50.68
56604;BME280;42486;47.478;19.036;2024-03-29T09:15:33;76202.59;;;-145.76;47.41
56604;BME280;42486;47.478;19.036;2024-03-29T09:18:36;76156.81;;;-145.76;47.22
56604;BME280;42486;47.478;19.036;2024-03-29T09:21:38;76206.56;;;-145.76;47.10
56604;BME280;42486;47.478;19.036;2024-03-29T09:24:41;76186.66;;;-145.76;48.20
56604;BME280;42486;47.478;19.036;2024-03-29T09:27:46;76182.69;;;-145.76;45.34
56604;BME280;42486;47.478;19.036;2024-03-29T09:31:00;76184.69;;;-145.76;45.08
56604;BME280;42486;47.478;19.036;2024-03-29T09:34:06;76180.69;;;-145.76;45.50
56604;BME280;42486;47.478;19.036;2024-03-29T09:37:08;76160.78;;;-145.76;45.21
56604;BME280;42486;47.478;19.036;2024-03-29T09:40:11;76136.91;;;-145.76;44.50
56604;BME280;42486;47.478;19.036;2024-03-29T09:43:15;76103.06;;;-145.76;45.42
56604;BME280;42486;47.478;19.036;2024-03-29T09:46:18;76111.03;;;-145.76;44.58
56604;BME280;42486;47.478;19.036;2024-03-29T09:49:21;76103.06;;;-145.76;44.50
56604;BME280;42486;47.478;19.036;2024-03-29T09:52:24;76081.16;;;-145.76;43.97
56604;BME280;42486;47.478;19.036;2024-03-29T09:55:28;76089.13;;;-145.76;42.95
56604;BME280;42486;47.478;19.036;2024-03-29T09:58:31;76043.34;;;-145.76;45.34
56604;BME280;42486;47.478;19.036;2024-03-29T10:01:34;76053.31;;;-145.76;44.82
56604;BME280;42486;47.478;19.036;2024-03-29T10:04:37;76065.25;;;-145.76;44.29
56604;BME280;42486;47.478;19.036;2024-03-29T10:07:42;76061.25;;;-145.76;43.79
56604;BME280;42486;47.478;19.036;2024-03-29T10:10:46;76093.09;;;-145.76;45.38
56604;BME280;42486;47.478;19.036;2024-03-29T10:13:49;76113.03;;;-145.76;45.12
56604;BME280;42486;47.478;19.036;2024-03-29T10:16:52;76111.03;;;-145.76;46.58
56604;BME280;42486;47.478;19.036;2024-03-29T10:20:02;76055.28;;;-145.76;46.77
56604;BME280;42486;47.478;19.036;2024-03-29T10:23:05;76011.50;;;-145.76;46.77
56604;BME280;42486;47.478;19.036;2024-03-29T10:26:09;75997.56;;;-145.76;46.08
56604;BME280;42486;47.478;19.036;2024-03-29T10:29:14;75957.75;;;-145.76;43.93
56604;BME280;42486;47.478;19.036;2024-03-29T10:32:18;75957.75;;;-145.76;44.89
56604;BME280;42486;47.478;19.036;2024-03-29T10:35:21;75947.81;;;-145.76;44.50
56604;BME280;42486;47.478;19.036;2024-03-29T10:38:25;75886.09;;;-145.76;45.69
56604;BME280;42486;47.478;19.036;2024-03-29T10:41:30;75854.25;;;-145.76;43.86
56604;BME280;42486;47.478;19.036;2024-03-29T10:44:34;75870.16;;;-145.76;44.82
56604;BME280;42486;47.478;19.036;2024-03-29T10:47:41;75836.34;;;-145.76;44.04
56604;BME280;42486;47.478;19.036;2024-03-29T10:50:47;75858.22;;;-145.76;43.53
56604;BME280;42486;47.478;19.036;2024-03-29T10:53:56;75860.22;;;-145.76;43.58
56604;BME280;42486;47.478;19.036;2024-03-29T10:57:09;75888.09;;;-145.76;45.37
56604;BME280;42486;47.478;19.036;2024-03-29T11:00:16;75906.00;;;-145.76;45.75
56604;BME280;42486;47.478;19.036;2024-03-29T11:03:31;75904.00;;;-145.76;47.07
56604;BME280;42486;47.478;19.036;2024-03-29T11:06:36;75917.94;;;-145.76;47.43
56604;BME280;42486;47.478;19.036;2024-03-29T11:09:47;75870.16;;;-145.76;46.85
56604;BME280;42486;47.478;19.036;2024-03-29T11:13:02;75834.34;;;-145.76;45.87
56604;BME280;42486;47.478;19.036;2024-03-29T11:16:08;75832.34;;;-145.76;46.46
56604;BME280;42486;47.478;19.036;2024-03-29T11:19:13;75826.38;;;-145.76;46.78
56604;BME280;42486;47.478;19.036;2024-03-29T11:22:16;75784.56;;;-145.76;46.41
56604;BME280;42486;47.478;19.036;2024-03-29T11:25:19;75778.59;;;-145.76;46.89
56604;BME280;42486;47.478;19.036;2024-03-29T11:28:37;75780.59;;;-145.76;47.36
56604;BME280;42486;47.478;19.036;2024-03-29T11:31:46;75730.84;;;-145.76;46.53
56604;BME280;42486;47.478;19.036;2024-03-29T11:34:52;75750.75;;;-145.76;47.61
56604;BME280;42486;47.478;19.036;2024-03-29T11:37:59;75726.84;;;-145.76;48.39
56604;BME280;42486;47.478;19.036;2024-03-29T11:41:10;75718.91;;;-145.76;48.31
56604;BME280;42486;47.478;19.036;2024-03-29T11:44:12;75712.91;;;-145.76;48.31
56604;BME280;42486;47.478;19.036;2024-03-29T11:47:17;75683.06;;;-145.76;48.36
56604;BME280;42486;47.478;19.036;2024-03-29T11:50:20;75641.28;;;-145.76;47.73
56604;BME280;42486;47.478;19.036;2024-03-29T11:53:26;75675.09;;;-145.76;47.88
56604;BME280;42486;47.478;19.036;2024-03-29T11:56:33;75679.09;;;-145.76;48.06
56604;BME280;42486;47.478;19.036;2024-03-29T11:59:40;75645.25;;;-145.76;48.52
56604;BME280;42486;47.478;19.036;2024-03-29T12:02:43;75643.25;;;-145.76;47.13
56604;BME280;42486;47.478;19.036;2024-03-29T12:05:47;75605.44;;;-145.76;47.62
56604;BME280;42486;47.478;19.036;2024-03-29T12:08:50;75599.47;;;-145.76;48.39
56604;BME280;42486;47.478;19.036;2024-03-29T12:11:55;75611.41;;;-145.76;48.12
56604;BME280;42486;47.478;19.036;2024-03-29T12:15:02;75631.31;;;-145.76;48.45
56604;BME280;42486;47.478;19.036;2024-03-29T12:18:08;75647.25;;;-145.76;48.92
56604;BME280;42486;47.478;19.036;2024-03-29T12:21:12;75649.22;;;-145.76;47.73
56604;BME280;42486;47.478;19.036;2024-03-29T12:24:17;75647.25;;;-145.76;49.35
56604;BME280;42486;47.478;19.036;2024-03-29T12:27:21;75651.22;;;-145.76;48.31
56604;BME280;42486;47.478;19.036;2024-03-29T12:30:26;75655.19;;;-145.76;49.73
56604;BME280;42486;47.478;19.036;2024-03-29T12:33:30;75629.31;;;-145.76;49.42
56604;BME280;42486;47.478;19.036;2024-03-29T12:36:34;75583.56;;;-145.76;48.09
56604;BME280;42486;47.478;19.036;2024-03-29T12:39:37;75569.63;;;-145.76;47.96
56604;BME280;42486;47.478;19.036;2024-03-29T12:42:44;75547.72;;;-145.76;47.42
56604;BME280;42486;47.478;19.036;2024-03-29T12:45:47;75547.72;;;-145.76;46.49
56604;BME280;42486;47.478;19.036;2024-03-29T12:49:03;75565.63;;;-145.76;47.60
56604;BME280;42486;47.478;19.036;2024-03-29T12:52:10;75549.72;;;-145.76;48.15
56604;BME280;42486;47.478;19.036;2024-03-29T12:55:12;75559.66;;;-145.76;48.52
56604;BME280;42486;47.478;19.036;2024-03-29T12:58:16;75575.59;;;-145.76;48.52
56604;BME280;42486;47.478;19.036;2024-03-29T13:01:22;75571.59;;;-145.76;48.95
56604;BME280;42486;47.478;19.036;2024-03-29T13:04:26;75571.59;;;-145.76;49.05
56604;BME280;42486;47.478;19.036;2024-03-29T13:07:29;75587.53;;;-145.76;48.79
56604;BME280;42486;47.478;19.036;2024-03-29T13:10:32;75567.63;;;-145.76;49.19
56604;BME280;42486;47.478;19.036;2024-03-29T13:13:36;75559.66;;;-145.76;48.51
56604;BME280;42486;47.478;19.036;2024-03-29T13:16:39;75531.78;;;-145.76;47.98
56604;BME280;42486;47.478;19.036;2024-03-29T13:19:42;75535.78;;;-145.76;47.09
56604;BME280;42486;47.478;19.036;2024-03-29T13:22:47;75531.78;;;-145.76;48.38
56604;BME280;42486;47.478;19.036;2024-03-29T13:25:51;75505.94;;;-145.76;47.76
56604;BME280;42486;47.478;19.036;2024-03-29T13:28:56;75495.97;;;-145.76;47.79
56604;BME280;42486;47.478;19.036;2024-03-29T13:32:00;75501.94;;;-145.76;47.50
56604;BME280;42486;47.478;19.036;2024-03-29T13:35:03;75488.00;;;-145.76;48.08
56604;BME280;42486;47.478;19.036;2024-03-29T13:38:14;75499.94;;;-145.76;48.47
56604;BME280;42486;47.478;19.036;2024-03-29T13:41:19;75488.00;;;-145.76;48.03
56604;BME280;42486;47.478;19.036;2024-03-29T13:44:24;75468.09;;;-145.76;47.88
56604;BME280;42486;47.478;19.036;2024-03-29T13:47:38;75416.38;;;-145.76;47.09
56604;BME280;42486;47.478;19.036;2024-03-29T13:50:48;75402.44;;;-145.76;46.05
56604;BME280;42486;47.478;19.036;2024-03-29T13:54:11;75362.63;;;-145.76;46.22
56604;BME280;42486;47.478;19.036;2024-03-29T13:57:15;75358.66;;;-145.76;45.58
56604;BME280;42486;47.478;19.036;2024-03-29T14:00:19;75358.66;;;-145.76;46.92
56604;BME280;42486;47.478;19.036;2024-03-29T14:03:21;75388.50;;;-145.76;47.21
56604;BME280;42486;47.478;19.036;2024-03-29T14:06:28;75402.44;;;-145.76;47.22
56604;BME280;42486;47.478;19.036;2024-03-29T14:09:32;75424.31;;;-145.76;47.83
56604;BME280;42486;47.478;19.036;2024-03-29T14:12:35;75424.31;;;-145.76;48.33
56604;BME280;42486;47.478;19.036;2024-03-29T14:15:39;75424.31;;;-145.76;48.10
56604;BME280;42486;47.478;19.036;2024-03-29T14:18:42;75456.16;;;-145.76;48.55
56604;BME280;42486;47.478;19.036;2024-03-29T14:21:44;75468.09;;;-145.76;49.12
56604;BME280;42486;47.478;19.036;2024-03-29T14:24:47;75464.13;;;-145.76;49.14
56604;BME280;42486;47.478;19.036;2024-03-29T14:27:50;75456.16;;;-145.76;50.03
56604;BME280;42486;47.478;19.036;2024-03-29T14:31:06;75400.44;;;-145.76;48.84
56604;BME280;42486;47.478;19.036;2024-03-29T14:34:09;75386.50;;;-145.76;47.86
56604;BME280;42486;47.478;19.036;2024-03-29T14:37:11;75350.69;;;-145.76;47.39
56604;BME280;42486;47.478;19.036;2024-03-29T14:40:19;75338.75;;;-145.76;46.55
56604;BME280;42486;47.478;19.036;2024-03-29T14:43:22;75332.78;;;-145.76;46.01
56604;BME280;42486;47.478;19.036;2024-03-29T14:46:25;75320.81;;;-145.76;45.67
56604;BME280;42486;47.478;19.036;2024-03-29T14:49:29;75302.91;;;-145.76;45.54
56604;BME280;42486;47.478;19.036;2024-03-29T14:52:32;75287.00;;;-145.76;45.29
56604;BME280;42486;47.478;19.036;2024-03-29T14:55:38;75306.91;;;-145.76;45.46
56604;BME280;42486;47.478;19.036;2024-03-29T14:58:42;75332.78;;;-145.76;45.83
56604;BME280;42486;47.478;19.036;2024-03-29T15:01:44;75320.81;;;-145.76;46.25
56604;BME280;42486;47.478;19.036;2024-03-29T15:04:52;75342.72;;;-145.76;46.59
56604;BME280;42486;47.478;19.036;2024-03-29T15:07:55;75356.66;;;-145.76;46.79
56604;BME280;42486;47.478;19.036;2024-03-29T15:11:00;75368.59;;;-145.76;47.83
56604;BME280;42486;47.478;19.036;2024-03-29T15:14:07;75370.59;;;-145.76;47.78
56604;BME280;42486;47.478;19.036;2024-03-29T15:17:13;75384.50;;;-145.76;47.61
56604;BME280;42486;47.478;19.036;2024-03-29T15:20:21;75386.50;;;-145.76;47.87
56604;BME280;42486;47.478;19.036;2024-03-29T15:23:25;75384.50;;;-145.76;48.00
56604;BME280;42486;47.478;19.036;2024-03-29T15:26:31;75378.53;;;-145.76;48.00
56604;BME280;42486;47.478;19.036;2024-03-29T15:29:36;75386.50;;;-145.76;48.05
56604;BME280;42486;47.478;19.036;2024-03-29T15:32:39;75386.50;;;-145.76;48.65
56604;BME280;42486;47.478;19.036;2024-03-29T15:35:42;75392.47;;;-145.76;48.05
56604;BME280;42486;47.478;19.036;2024-03-29T15:38:45;75368.59;;;-145.76;47.71